Time;durP1;ratioP1;P1;durP2;ratioP2;P2;SDS_P1;SDS_P2;PMS_P1;PMS_P2;Temp;Humidity;BMP_temperature;BMP_pressure;BME280_temperature;BME280_humidity;BME280_pressure;Samples;Min_cycle;Max_cycle;Signal;HPM_P1;HPM_P2
2022/09/02 00:01:21;;;;;;;3.55;2.40;;;21.20;99.90;;;;;;1886341;75;21133;-82
2022/09/02 00:06:56;;;;;;;3.90;2.50;;;21.20;99.90;;;;;;1951855;72;22334;-81
2022/09/02 00:09:47;;;;;;;3.20;1.92;;;21.20;99.90;;;;;;1892465;75;21187;-81
2022/09/02 00:15:18;;;;;;;3.02;2.15;;;21.10;99.90;;;;;;1952542;72;22818;-81
2022/09/02 00:18:11;;;;;;;2.33;2.12;;;21.10;99.90;;;;;;1899414;75;21101;-81
2022/09/02 00:21:04;;;;;;;2.60;2.40;;;21.10;99.90;;;;;;1903443;75;21220;-79
2022/09/02 00:23:55;;;;;;;2.35;2.00;;;21.00;99.90;;;;;;1890495;75;21051;-80
2022/09/02 00:29:38;;;;;;;3.92;2.62;;;21.00;99.90;;;;;;1940087;72;22118;-81
2022/09/02 00:32:29;;;;;;;3.70;2.42;;;21.00;99.90;;;;;;1889644;74;21136;-81
2022/09/02 00:35:20;;;;;;;2.60;2.17;;;21.10;99.90;;;;;;1884526;75;21059;-81
2022/09/02 00:38:12;;;;;;;4.03;2.40;;;21.10;99.90;;;;;;1888592;75;21054;-81
2022/09/02 00:41:07;;;;;;;2.50;2.10;;;21.00;99.90;;;;;;1884781;75;21176;-81
2022/09/02 00:44:09;;;;;;;2.67;2.42;;;21.00;99.90;;;;;;1904620;75;21051;-80
2022/09/02 00:47:02;;;;;;;3.10;2.47;;;21.00;99.90;;;;;;1909787;75;21055;-80
2022/09/02 00:49:55;;;;;;;3.37;2.10;;;20.90;99.90;;;;;;1889610;75;21057;-80
2022/09/02 00:55:28;;;;;;;4.62;2.40;;;20.90;99.90;;;;;;1938976;72;22206;-80
2022/09/02 00:58:23;;;;;;;4.85;2.22;;;20.80;99.90;;;;;;1916556;74;21106;-81
2022/09/02 01:01:14;;;;;;;4.33;2.52;;;20.80;99.90;;;;;;1898488;74;21120;-81
2022/09/02 01:04:07;;;;;;;3.75;2.65;;;20.90;99.90;;;;;;1888373;74;21117;-81
2022/09/02 01:06:58;;;;;;;5.22;2.77;;;20.80;99.90;;;;;;1906539;74;21067;-81
2022/09/02 01:10:00;;;;;;;2.58;2.33;;;20.90;99.90;;;;;;1901615;74;21093;-82
2022/09/02 01:12:55;;;;;;;3.90;2.58;;;20.80;99.90;;;;;;1915950;75;21242;-80
2022/09/02 01:15:48;;;;;;;4.60;2.70;;;20.80;99.90;;;;;;1898360;74;21156;-80
2022/09/02 01:24:54;;;;;;;2.75;2.25;;;20.80;99.90;;;;;;1909747;74;21048;-82
2022/09/02 01:27:47;;;;;;;2.70;2.30;;;20.80;99.90;;;;;;1909147;74;21086;-81
2022/09/02 01:30:41;;;;;;;3.00;2.12;;;20.80;99.90;;;;;;1904882;75;21194;-81
2022/09/02 01:36:10;;;;;;;3.62;2.25;;;20.80;99.90;;;;;;1919099;72;22211;-81
2022/09/02 01:39:11;;;;;;;3.75;2.55;;;20.80;99.90;;;;;;1901416;74;21091;-80
2022/09/02 01:42:02;;;;;;;3.42;2.55;;;20.80;99.90;;;;;;1894661;74;21109;-77
2022/09/02 01:45:00;;;;;;;3.60;2.40;;;20.80;99.90;;;;;;1892747;74;21073;-79
2022/09/02 01:47:52;;;;;;;2.95;2.58;;;20.80;99.90;;;;;;1910103;74;21144;-79
2022/09/02 01:50:46;;;;;;;2.60;2.40;;;20.80;99.90;;;;;;1906161;74;21116;-79
2022/09/02 01:53:37;;;;;;;2.90;2.17;;;20.80;99.90;;;;;;1899471;74;21117;-79
2022/09/02 01:56:29;;;;;;;4.67;2.65;;;20.70;99.90;;;;;;1905727;75;21113;-80
2022/09/02 01:59:22;;;;;;;3.33;2.45;;;20.70;99.90;;;;;;1889261;74;21066;-80
2022/09/02 02:04:52;;;;;;;2.42;2.17;;;20.60;99.90;;;;;;1948082;72;22151;-80
2022/09/02 02:07:44;;;;;;;6.33;2.40;;;20.60;99.90;;;;;;1900552;75;21123;-82
2022/09/02 02:10:53;;;;;;;3.10;2.50;;;20.50;99.90;;;;;;1911405;75;21618;-81
2022/09/02 02:13:54;;;;;;;4.33;3.10;;;20.50;99.90;;;;;;1917091;75;21102;-81
2022/09/02 02:19:33;;;;;;;3.60;3.12;;;20.40;99.90;;;;;;1909122;72;22214;-78
2022/09/02 02:22:38;;;;;;;3.60;3.17;;;20.40;99.90;;;;;;1919150;73;21139;-78
2022/09/02 02:25:36;;;;;;;3.62;3.00;;;20.50;99.90;;;;;;1919641;73;21114;-81
2022/09/02 02:31:08;;;;;;;5.25;3.22;;;20.40;99.90;;;;;;1942868;72;22233;-80
2022/09/02 02:34:00;;;;;;;4.08;3.00;;;20.30;99.90;;;;;;1885012;75;21108;-81
2022/09/02 02:36:52;;;;;;;3.65;3.02;;;20.20;99.90;;;;;;1906617;75;21106;-80
2022/09/02 02:39:44;;;;;;;3.65;2.60;;;20.20;99.90;;;;;;1884595;75;21082;-79
2022/09/02 02:45:17;;;;;;;4.05;2.67;;;20.10;99.90;;;;;;1949157;72;22177;-79
2022/09/02 02:48:08;;;;;;;3.75;2.65;;;20.10;99.90;;;;;;1917456;73;21157;-78
2022/09/02 02:50:59;;;;;;;4.10;2.90;;;20.10;99.90;;;;;;1933599;73;21098;-79
2022/09/02 02:53:51;;;;;;;6.17;3.10;;;20.00;99.90;;;;;;1926219;73;21050;-79
2022/09/02 02:59:25;;;;;;;2.80;2.50;;;20.10;99.90;;;;;;1941840;72;22186;-79
2022/09/02 03:02:16;;;;;;;3.12;2.83;;;20.10;99.90;;;;;;1894457;75;21129;-79
2022/09/02 03:05:12;;;;;;;3.75;2.70;;;20.10;99.90;;;;;;1892954;74;21105;-79
2022/09/02 03:08:04;;;;;;;3.87;2.60;;;20.00;99.90;;;;;;1911417;74;21146;-81
2022/09/02 03:10:56;;;;;;;3.42;3.08;;;20.00;99.90;;;;;;1906127;75;21168;-80
2022/09/02 03:13:50;;;;;;;4.33;2.98;;;20.00;99.90;;;;;;1892637;75;21061;-80
2022/09/02 03:19:21;;;;;;;3.72;2.70;;;19.90;99.90;;;;;;1947609;72;22245;-80
2022/09/02 03:22:13;;;;;;;3.22;2.90;;;20.00;99.90;;;;;;1902254;75;21102;-82
2022/09/02 03:25:04;;;;;;;3.55;2.52;;;20.00;99.90;;;;;;1884843;75;21169;-82
2022/09/02 03:27:57;;;;;;;3.08;2.70;;;19.90;99.90;;;;;;1896775;75;21035;-82
2022/09/02 03:30:50;;;;;;;3.45;2.70;;;19.90;99.90;;;;;;1915911;75;21088;-81
2022/09/02 03:33:41;;;;;;;3.17;2.60;;;19.90;99.90;;;;;;1896123;75;21097;-82
2022/09/02 03:39:25;;;;;;;3.45;2.70;;;19.90;99.90;;;;;;1943566;72;22127;-82
2022/09/02 03:42:16;;;;;;;4.53;2.72;;;19.90;99.90;;;;;;1919010;73;21087;-81
2022/09/02 03:45:13;;;;;;;5.30;2.50;;;19.80;99.90;;;;;;1925359;73;21098;-82
2022/09/02 03:48:05;;;;;;;5.62;2.72;;;19.80;99.90;;;;;;1928588;73;21181;-82
2022/09/02 03:53:58;;;;;;;2.50;2.30;;;19.80;99.90;;;;;;1923607;73;21487;-81
2022/09/02 03:59:28;;;;;;;3.20;2.70;;;19.70;99.90;;;;;;1934547;72;22122;-82
2022/09/02 04:05:03;;;;;;;3.02;2.47;;;19.70;99.90;;;;;;1941648;72;22202;-81
2022/09/02 04:07:56;;;;;;;3.98;2.77;;;19.80;99.90;;;;;;1915687;74;21056;-80
2022/09/02 04:10:47;;;;;;;3.30;3.00;;;19.80;99.90;;;;;;1862669;76;21131;-80
2022/09/02 04:13:42;;;;;;;5.17;3.12;;;19.70;99.90;;;;;;1916245;74;21155;-80
2022/09/02 04:19:30;;;;;;;5.83;2.83;;;19.70;99.90;;;;;;1934468;72;22268;-80
2022/09/02 04:22:36;;;;;;;4.25;3.00;;;19.70;99.90;;;;;;1884723;75;21577;-81
2022/09/02 04:25:28;;;;;;;6.28;2.77;;;19.70;99.90;;;;;;1887460;75;21064;-80
2022/09/02 04:28:19;;;;;;;5.50;3.35;;;19.60;99.90;;;;;;1900985;75;21169;-80
2022/09/02 04:31:13;;;;;;;6.30;3.02;;;19.60;99.90;;;;;;1884951;75;21502;-80
2022/09/02 04:36:45;;;;;;;6.40;2.77;;;19.60;99.90;;;;;;1957018;72;22251;-78
2022/09/02 04:39:37;;;;;;;3.00;2.80;;;19.50;99.90;;;;;;1938542;73;21172;-80
2022/09/02 04:42:30;;;;;;;3.42;3.12;;;19.50;99.90;;;;;;1917941;73;21095;-80
2022/09/02 04:45:45;;;;;;;3.45;2.65;;;19.50;99.90;;;;;;1935454;73;21214;-80
2022/09/02 04:51:29;;;;;;;3.30;3.00;;;19.50;99.90;;;;;;1928559;72;22209;-82
2022/09/02 04:54:34;;;;;;;4.28;3.50;;;19.50;99.90;;;;;;1897391;73;21116;-83
2022/09/02 05:00:07;;;;;;;4.50;3.05;;;19.50;99.90;;;;;;1941601;72;22281;-80
2022/09/02 05:03:00;;;;;;;5.97;3.33;;;19.50;99.90;;;;;;1921311;73;21102;-80
2022/09/02 05:06:01;;;;;;;4.83;3.30;;;19.50;99.90;;;;;;1937163;73;21106;-81
2022/09/02 05:09:02;;;;;;;4.75;3.20;;;19.50;99.90;;;;;;1916903;75;21087;-80
2022/09/02 05:12:03;;;;;;;4.20;3.40;;;19.50;99.90;;;;;;1921087;73;21180;-81
2022/09/02 05:14:53;;;;;;;5.00;3.45;;;19.50;99.90;;;;;;1933285;73;21051;-81
2022/09/02 05:17:45;;;;;;;6.37;3.40;;;19.50;99.90;;;;;;1925170;73;21185;-81
2022/09/02 05:20:42;;;;;;;4.83;3.08;;;19.40;99.90;;;;;;1920783;73;21102;-80
2022/09/02 05:23:34;;;;;;;4.50;3.47;;;19.30;99.90;;;;;;1934148;73;21125;-80
2022/09/02 05:26:26;;;;;;;5.45;3.60;;;19.30;99.90;;;;;;1887787;75;21125;-80
2022/09/02 05:31:57;;;;;;;5.03;3.30;;;19.30;99.90;;;;;;1929358;72;22995;-78
2022/09/02 05:34:49;;;;;;;3.70;3.20;;;19.40;99.90;;;;;;1916604;74;21106;-80
2022/09/02 05:40:20;;;;;;;3.72;3.30;;;19.50;99.90;;;;;;1933729;72;22161;-80
2022/09/02 05:46:08;;;;;;;6.95;3.20;;;19.50;99.90;;;;;;1935161;72;22147;-79
2022/09/02 05:49:20;;;;;;;7.93;4.00;;;19.50;99.90;;;;;;1913564;75;21441;-80
2022/09/02 05:54:52;;;;;;;7.00;3.75;;;19.50;99.90;;;;;;1941246;72;22184;-77
2022/09/02 05:57:49;;;;;;;4.40;3.60;;;19.50;99.90;;;;;;1905085;75;21161;-78
2022/09/02 06:00:40;;;;;;;4.55;3.10;;;19.50;99.90;;;;;;1899922;75;21124;-78
2022/09/02 06:03:32;;;;;;;6.05;3.52;;;19.50;99.90;;;;;;1916408;74;21054;-78
2022/09/02 06:06:23;;;;;;;4.17;3.40;;;19.60;99.90;;;;;;1891028;74;21117;-78
2022/09/02 06:09:17;;;;;;;7.40;3.47;;;19.60;99.90;;;;;;1917298;74;21215;-79
2022/09/02 06:12:18;;;;;;;5.08;3.80;;;19.50;99.90;;;;;;1917869;74;21151;-79
2022/09/02 06:15:11;;;;;;;5.67;3.45;;;19.60;99.90;;;;;;1899133;74;21208;-78
2022/09/02 06:18:02;;;;;;;5.10;3.50;;;19.60;99.90;;;;;;1912781;75;21051;-78
2022/09/02 06:21:10;;;;;;;4.67;3.52;;;19.70;99.90;;;;;;1914807;74;21147;-79
2022/09/02 06:24:22;;;;;;;6.90;4.05;;;19.70;99.90;;;;;;1880085;76;21067;-79
2022/09/02 06:27:15;;;;;;;;;;;19.80;99.90;;;;;;1891963;75;21086;-79
2022/09/02 06:30:10;;;;;;;3.90;3.50;;;19.70;99.90;;;;;;1912068;74;20254;-79
2022/09/02 06:33:03;;;;;;;3.72;3.40;;;19.80;99.90;;;;;;1898052;74;21356;-79
2022/09/02 06:36:01;;;;;;;12.47;3.95;;;19.80;99.90;;;;;;1911150;74;21230;-78
2022/09/02 06:39:01;;;;;;;6.42;3.80;;;19.80;99.90;;;;;;1904231;74;21633;-78
2022/09/02 06:41:55;;;;;;;7.35;4.30;;;19.90;99.90;;;;;;1914240;75;21204;-78
2022/09/02 06:44:46;;;;;;;9.05;4.25;;;19.90;99.90;;;;;;1901093;74;21218;-77
2022/09/02 06:47:39;;;;;;;7.03;4.25;;;20.00;99.90;;;;;;1890528;75;21597;-78
2022/09/02 06:50:30;;;;;;;5.58;3.25;;;20.00;99.90;;;;;;1916134;75;21102;-79
2022/09/02 06:53:23;;;;;;;4.03;3.15;;;20.20;99.90;;;;;;1894286;74;21719;-83
2022/09/02 06:56:14;;;;;;;8.35;3.50;;;20.30;99.90;;;;;;1894336;75;21160;-84
2022/09/02 06:59:10;;;;;;;3.87;3.30;;;20.40;99.90;;;;;;1900139;75;21570;-84
2022/09/02 07:02:10;;;;;;;6.15;3.27;;;20.40;99.90;;;;;;1883949;76;21177;-80
2022/09/02 07:05:14;;;;;;;4.75;3.00;;;20.50;99.90;;;;;;1892524;75;21054;-83
2022/09/02 07:08:06;;;;;;;4.65;3.00;;;20.60;99.90;;;;;;1893824;75;21132;-81
2022/09/02 07:10:59;;;;;;;3.85;2.60;;;20.90;99.90;;;;;;1909526;75;21055;-82
2022/09/02 07:13:52;;;;;;;4.30;2.87;;;21.50;99.90;;;;;;1915996;74;21058;-82
2022/09/02 07:16:47;;;;;;;6.22;3.25;;;21.40;99.90;;;;;;1884062;76;21102;-80
2022/09/02 07:19:39;;;;;;;12.13;3.90;;;21.60;99.90;;;;;;1906189;75;21185;-80
2022/09/02 07:22:31;;;;;;;7.20;3.65;;;21.80;99.90;;;;;;1907199;75;21156;-80
2022/09/02 07:25:23;;;;;;;6.15;3.40;;;21.60;99.90;;;;;;1916831;75;21165;-80
2022/09/02 07:28:15;;;;;;;7.53;3.60;;;21.40;99.90;;;;;;1884028;76;21718;-77
2022/09/02 07:31:09;;;;;;;4.92;3.40;;;21.30;99.90;;;;;;1905872;75;21058;-77
2022/09/02 07:34:00;;;;;;;4.28;3.12;;;21.50;99.90;;;;;;1910754;75;21059;-77
2022/09/02 07:36:52;;;;;;;7.65;3.55;;;21.90;99.90;;;;;;1916785;75;21129;-77
2022/09/02 07:39:44;;;;;;;7.05;3.10;;;22.20;99.90;;;;;;1916873;75;21097;-78
2022/09/02 07:42:37;;;;;;;4.95;3.25;;;22.30;99.90;;;;;;1883956;76;21223;-78
2022/09/02 07:45:28;;;;;;;3.95;3.00;;;22.10;99.90;;;;;;1912925;75;21117;-78
2022/09/02 07:51:41;;;;;;;3.75;3.08;;;22.20;99.90;;;;;;1895027;75;21160;-79
2022/09/02 07:54:32;;;;;;;4.25;3.00;;;22.00;99.90;;;;;;1899122;75;21110;-79
2022/09/02 07:57:25;;;;;;;3.58;2.77;;;22.00;99.90;;;;;;1904857;75;21655;-79
2022/09/02 08:00:19;;;;;;;6.05;2.90;;;22.20;99.90;;;;;;1894579;75;21155;-78
2022/09/02 08:03:24;;;;;;;4.35;2.70;;;22.40;99.90;;;;;;1899698;74;21541;-77
2022/09/02 08:06:17;;;;;;;3.25;2.50;;;22.80;99.90;;;;;;1816063;79;21113;-76
2022/09/02 08:09:11;;;;;;;4.22;3.02;;;22.80;99.90;;;;;;1882078;74;21115;-77
2022/09/02 08:14:42;;;;;;;5.83;3.27;;;22.90;99.90;;;;;;1945623;72;22133;-78
2022/09/02 08:17:33;;;;;;;5.05;3.52;;;22.90;99.90;;;;;;1908901;75;21094;-82
2022/09/02 08:20:26;;;;;;;3.75;3.08;;;22.90;99.90;;;;;;1898295;75;21063;-79
2022/09/02 08:23:21;;;;;;;3.80;3.00;;;22.90;99.90;;;;;;1898839;75;21652;-82
2022/09/02 08:26:16;;;;;;;4.67;3.37;;;23.00;99.90;;;;;;1894915;75;21122;-78
2022/09/02 08:29:08;;;;;;;2.50;2.30;;;23.30;99.90;;;;;;1894089;75;21221;-77
2022/09/02 08:31:59;;;;;;;3.83;3.10;;;23.40;99.90;;;;;;1894781;75;21061;-76
2022/09/02 08:34:50;;;;;;;5.53;3.10;;;23.50;99.90;;;;;;1900564;75;21058;-76
2022/09/02 08:37:42;;;;;;;4.22;2.90;;;23.40;99.90;;;;;;1884349;76;21118;-76
2022/09/02 08:40:36;;;;;;;4.87;3.30;;;23.50;99.90;;;;;;1906316;75;21200;-76
2022/09/02 08:43:36;;;;;;;3.08;2.77;;;23.50;99.90;;;;;;1906356;75;21075;-76
2022/09/02 08:46:27;;;;;;;3.40;2.70;;;23.60;99.90;;;;;;1885861;73;21290;-79
2022/09/02 08:49:22;;;;;;;4.12;2.95;;;23.70;99.90;;;;;;1900484;73;21127;-77
2022/09/02 08:52:16;;;;;;;5.28;3.10;;;23.90;99.90;;;;;;1900557;73;21193;-77
2022/09/02 08:55:11;;;;;;;4.00;3.40;;;24.00;99.90;;;;;;1885483;73;21097;-81
2022/09/02 08:58:02;;;;;;;10.43;7.92;;;24.30;99.90;;;;;;1905880;75;21128;-79
2022/09/02 09:00:58;;;;;;;4.20;3.70;;;24.40;99.90;;;;;;1907909;73;21091;-81
2022/09/02 09:04:00;;;;;;;5.33;3.80;;;24.50;99.90;;;;;;1917507;73;21141;-79
2022/09/02 09:07:17;;;;;;;4.67;3.90;;;24.70;99.90;;;;;;1898905;75;21601;-80
2022/09/02 09:10:14;;;;;;;5.87;4.10;;;24.60;99.90;;;;;;1890211;73;21113;-80
2022/09/02 09:13:22;;;;;;;6.58;3.27;;;24.40;99.90;;;;;;1898055;73;21108;-81
2022/09/02 09:16:14;;;;;;;;;;;24.50;99.90;;;;;;1900777;74;21203;-79
2022/09/02 09:19:09;;;;;;;2.80;2.55;;;24.60;99.90;;;;;;1884028;75;20178;-80
2022/09/02 09:22:02;;;;;;;4.97;2.95;;;24.80;99.90;;;;;;1890436;75;21111;-80
2022/09/02 09:24:55;;;;;;;4.95;4.45;;;25.10;99.90;;;;;;1882194;75;21137;-81
2022/09/02 09:27:47;;;;;;;3.52;3.22;;;25.10;99.90;;;;;;1898375;73;21133;-77
2022/09/02 09:30:46;;;;;;;4.40;2.98;;;25.20;99.90;;;;;;1905612;75;21098;-75
2022/09/02 09:34:08;;;;;;;6.25;3.52;;;25.30;99.90;;;;;;1904747;75;21106;-91
2022/09/02 09:37:00;;;;;;;383.38;344.10;;;25.40;99.90;;;;;;1920231;74;21172;-83
2022/09/02 09:39:52;;;;;;;11.80;8.53;;;25.60;99.90;;;;;;1879302;76;21693;-76
2022/09/02 09:42:46;;;;;;;4.55;3.65;;;25.70;99.90;;;;;;1895952;75;21133;-74
2022/09/02 09:45:41;;;;;;;3.70;3.10;;;25.70;99.90;;;;;;1911407;73;21247;-82
2022/09/02 09:48:37;;;;;;;2.77;2.50;;;25.40;99.90;;;;;;1923439;73;21121;-79
2022/09/02 09:51:26;;;;;;;3.37;2.80;;;25.30;99.90;;;;;;1880975;75;21168;-78
2022/09/02 09:54:19;;;;;;;5.22;3.55;;;25.20;99.90;;;;;;1887978;75;21064;-78
2022/09/02 09:57:21;;;;;;;3.75;3.37;;;25.10;99.90;;;;;;1913845;73;21568;-78
2022/09/02 10:00:18;;;;;;;3.35;2.80;;;25.00;99.90;;;;;;1901972;75;21110;-77
2022/09/02 10:03:12;;;;;;;5.47;2.80;;;25.10;99.90;;;;;;1910567;75;21209;-78
2022/09/02 10:06:18;;;;;;;3.12;2.62;;;25.10;99.90;;;;;;1906545;73;21110;-78
2022/09/02 10:09:27;;;;;;;2.98;2.67;;;25.00;99.90;;;;;;1905529;75;21169;-79
2022/09/02 10:12:22;;;;;;;4.08;3.17;;;25.00;99.90;;;;;;1891628;75;21125;-79
2022/09/02 10:15:13;;;;;;;3.30;3.00;;;24.90;99.90;;;;;;1891446;74;21120;-79
2022/09/02 10:18:13;;;;;;;4.10;2.80;;;24.80;99.90;;;;;;1909494;74;21644;-78
2022/09/02 10:21:15;;;;;;;3.40;3.10;;;24.90;99.90;;;;;;1905163;74;21753;-78
2022/09/02 10:24:15;;;;;;;3.92;2.85;;;25.00;99.90;;;;;;1915645;73;21152;-79
2022/09/02 10:27:16;;;;;;;3.02;2.67;;;25.10;99.90;;;;;;1900565;74;21182;-79
2022/09/02 10:30:16;;;;;;;6.42;2.90;;;25.30;99.90;;;;;;1912659;74;21101;-79
2022/09/02 10:33:19;;;;;;;3.45;2.62;;;25.30;99.90;;;;;;1916499;74;21047;-79
2022/09/02 10:36:16;;;;;;;3.15;2.60;;;25.40;99.90;;;;;;1914610;73;21525;-79
2022/09/02 10:42:01;;;;;;;4.80;3.30;;;25.70;99.90;;;;;;1948152;72;22075;-75
2022/09/02 10:44:56;;;;;;;2.90;2.70;;;25.80;99.90;;;;;;1905892;75;21062;-76
2022/09/02 10:47:54;;;;;;;3.15;2.85;;;25.70;99.90;;;;;;1904443;75;21384;-81
2022/09/02 10:50:52;;;;;;;3.77;3.00;;;25.90;99.90;;;;;;1898067;75;21122;-81
2022/09/02 10:53:49;;;;;;;3.02;2.72;;;26.00;99.90;;;;;;1894831;75;21051;-77
2022/09/02 10:56:46;;;;;;;3.75;2.80;;;26.00;99.90;;;;;;1893108;75;21224;-77
2022/09/02 10:59:42;;;;;;;4.20;2.75;;;25.90;99.90;;;;;;1906172;75;21066;-77
2022/09/02 11:02:37;;;;;;;3.25;2.75;;;25.80;99.90;;;;;;1884136;76;21109;-77
2022/09/02 11:05:31;;;;;;;3.00;2.50;;;25.80;99.90;;;;;;1907681;73;21117;-77
2022/09/02 11:08:27;;;;;;;3.22;2.83;;;25.90;99.90;;;;;;1906438;75;21172;-77
2022/09/02 11:11:23;;;;;;;4.78;3.20;;;26.00;99.90;;;;;;1901959;75;21208;-76
2022/09/02 11:14:20;;;;;;;4.35;2.83;;;26.00;99.90;;;;;;1897050;75;21569;-77
2022/09/02 11:17:16;;;;;;;8.83;3.80;;;25.90;99.90;;;;;;1896869;73;21198;-79
2022/09/02 11:20:26;;;;;;;15.83;4.97;;;25.30;99.90;;;;;;1902821;75;21087;-80
2022/09/02 11:26:06;;;;;;;5.67;3.35;;;24.50;99.90;;;;;;1944278;72;22346;-79
2022/09/02 11:29:01;;;;;;;4.17;2.87;;;24.50;99.90;;;;;;1887855;75;21103;-78
2022/09/02 11:32:03;;;;;;;4.25;3.02;;;24.30;99.90;;;;;;1894180;75;21156;-78
2022/09/02 11:35:05;;;;;;;3.62;2.83;;;24.40;99.90;;;;;;1903577;75;21098;-78
2022/09/02 11:38:01;;;;;;;5.92;3.40;;;24.50;99.90;;;;;;1905691;73;21040;-77
2022/09/02 11:41:02;;;;;;;2.27;2.08;;;24.50;99.90;;;;;;1894270;75;21175;-78
2022/09/02 11:44:04;;;;;;;4.87;2.70;;;24.50;99.90;;;;;;1885933;75;21171;-78
2022/09/02 11:47:10;;;;;;;3.83;2.60;;;24.60;99.90;;;;;;1890425;75;21066;-78
2022/09/02 11:50:17;;;;;;;5.83;3.20;;;24.70;99.90;;;;;;1895769;75;21165;-78
2022/09/02 11:53:19;;;;;;;9.23;3.55;;;24.80;99.90;;;;;;1895036;75;21096;-78
2022/09/02 11:56:14;;;;;;;4.65;2.72;;;24.70;99.90;;;;;;1905265;75;21146;-78
2022/09/02 11:59:20;;;;;;;5.12;2.70;;;24.80;99.90;;;;;;1903159;75;21101;-78
2022/09/02 12:02:17;;;;;;;4.85;2.72;;;24.80;99.90;;;;;;1899752;75;21572;-80
2022/09/02 12:05:48;;;;;;;4.60;2.90;;;24.70;99.90;;;;;;1900023;75;21068;-80
2022/09/02 12:09:09;;;;;;;7.67;2.95;;;24.70;99.90;;;;;;1899780;75;21121;-81
2022/09/02 12:12:00;;;;;;;5.92;3.17;;;24.60;99.90;;;;;;1900243;75;21615;-81
2022/09/02 12:15:14;;;;;;;6.92;3.72;;;24.50;99.90;;;;;;1896452;75;21167;-81
2022/09/02 12:18:12;;;;;;;6.78;3.50;;;24.60;99.90;;;;;;1897411;75;21560;-82
2022/09/02 12:21:17;;;;;;;;;;;24.50;99.90;;;;;;1897077;75;21213;-82
2022/09/02 12:24:24;;;;;;;4.72;3.87;;;24.40;99.90;;;;;;1906271;75;20115;-82
2022/09/02 12:27:36;;;;;;;5.00;3.22;;;24.40;99.90;;;;;;1887758;75;21207;-82
2022/09/02 12:31:07;;;;;;;6.92;3.40;;;24.70;99.90;;;;;;1901861;75;21090;-82
2022/09/02 12:34:01;;;;;;;5.03;3.08;;;25.00;99.90;;;;;;1911636;75;21421;-82
2022/09/02 12:36:52;;;;;;;4.53;3.25;;;25.30;99.90;;;;;;1906712;75;21153;-81
2022/09/02 12:39:57;;;;;;;3.55;3.12;;;25.40;99.90;;;;;;1906051;75;21087;-80
2022/09/02 12:42:55;;;;;;;3.98;3.37;;;25.50;99.90;;;;;;1900173;75;21624;-80
2022/09/02 12:45:48;;;;;;;6.28;3.30;;;25.20;99.90;;;;;;1910736;75;21135;-80
2022/09/02 12:52:04;;;;;;;10.88;9.25;;;24.90;99.90;;;;;;1899003;75;21090;-78
2022/09/02 12:55:07;;;;;;;4.90;3.25;;;24.90;99.90;;;;;;1900564;73;21108;-82
2022/09/02 12:58:10;;;;;;;6.50;3.27;;;24.90;99.90;;;;;;1896153;73;21105;-82
2022/09/02 13:01:21;;;;;;;6.22;3.45;;;24.90;99.90;;;;;;1900285;73;21183;-84
2022/09/02 13:04:33;;;;;;;7.17;5.10;;;25.10;99.90;;;;;;1890096;73;21176;-84
2022/09/02 13:08:07;;;;;;;7.65;5.03;;;25.30;99.90;;;;;;1903472;73;21191;-86
2022/09/02 13:11:54;;;;;;;4.33;2.92;;;25.30;99.90;;;;;;1904355;75;21048;-86
2022/09/02 13:15:20;;;;;;;5.35;3.27;;;25.60;99.90;;;;;;1906090;75;21528;-87
2022/09/02 13:22:17;;;;;;;3.45;2.47;;;25.90;99.90;;;;;;1899820;75;21058;-85
2022/09/02 13:25:51;;;;;;;3.72;2.67;;;25.70;99.90;;;;;;1898415;73;21054;-84
2022/09/02 13:29:08;;;;;;;5.65;2.95;;;25.90;99.90;;;;;;1886101;75;21110;-84
2022/09/02 13:32:14;;;;;;;5.53;3.55;;;25.80;99.90;;;;;;1903873;73;21110;-83
2022/09/02 13:35:24;;;;;;;6.80;3.77;;;25.70;99.90;;;;;;1894666;75;21067;-87
2022/09/02 13:38:26;;;;;;;8.28;3.72;;;25.80;99.90;;;;;;1903581;75;21181;-86
2022/09/02 13:41:32;;;;;;;4.70;2.67;;;25.90;99.90;;;;;;1899305;75;21199;-88
2022/09/02 13:45:10;;;;;;;4.80;3.17;;;26.10;99.90;;;;;;1887101;73;21084;-84
2022/09/02 13:48:08;;;;;;;7.95;2.90;;;26.20;99.90;;;;;;1889361;75;21062;-87
2022/09/02 13:51:03;;;;;;;3.98;3.50;;;26.90;99.90;;;;;;1906676;75;21075;-85
2022/09/02 13:54:04;;;;;;;3.40;2.87;;;27.30;99.90;;;;;;1879793;76;21110;-91
2022/09/02 13:56:59;;;;;;;3.30;2.75;;;27.30;99.90;;;;;;1931334;73;21094;-90
2022/09/02 13:59:52;;;;;;;6.00;2.60;;;26.90;99.90;;;;;;1911291;75;21129;-79
2022/09/02 14:02:44;;;;;;;6.53;2.87;;;27.10;99.90;;;;;;1905190;75;21184;-82
2022/09/02 14:05:40;;;;;;;3.15;2.85;;;27.70;99.90;;;;;;1897412;73;21101;-82
2022/09/02 14:08:46;;;;;;;3.50;2.83;;;28.10;99.90;;;;;;1882193;75;21035;-82
2022/09/02 14:11:42;;;;;;;4.30;2.55;;;28.90;99.90;;;;;;1883363;76;21087;-83
2022/09/02 14:14:42;;;;;;;4.40;2.90;;;29.70;99.90;;;;;;1912214;75;21176;-84
2022/09/02 14:21:00;;;;;;;3.47;3.15;;;29.70;99.90;;;;;;1950075;72;22127;-76
2022/09/02 14:24:04;;;;;;;3.65;3.10;;;30.10;99.90;;;;;;1884587;75;21186;-83
2022/09/02 14:30:26;;;;;;;4.92;2.67;;;32.10;99.90;;;;;;1884561;76;21070;-89
2022/09/02 14:33:30;;;;;;;2.55;2.25;;;33.20;99.90;;;;;;1884931;76;21102;-89
2022/09/02 14:36:34;;;;;;;5.67;3.92;;;32.80;99.90;;;;;;1885027;76;22335;-78
2022/09/02 14:39:33;;;;;;;2.70;2.50;;;33.30;99.90;;;;;;1884335;75;21132;-81
2022/09/02 14:42:25;;;;;;;5.92;3.75;;;33.80;98.10;;;;;;1893909;75;21197;-83
2022/09/02 14:45:28;;;;;;;2.60;2.40;;;34.30;98.60;;;;;;1935950;73;21612;-83
2022/09/02 14:48:22;;;;;;;5.25;3.00;;;35.00;96.40;;;;;;1886614;75;21168;-82
2022/09/02 14:51:21;;;;;;;2.92;2.60;;;35.70;94.30;;;;;;1897117;75;21061;-82
2022/09/02 14:54:38;;;;;;;2.90;2.47;;;35.50;92.60;;;;;;1901630;75;21070;-81
2022/09/02 14:57:34;;;;;;;3.02;2.72;;;35.90;92.10;;;;;;1898745;73;21106;-82
2022/09/02 15:03:49;;;;;;;3.08;2.20;;;37.20;89.50;;;;;;1896452;75;21058;-86
2022/09/02 15:06:52;;;;;;;2.72;2.40;;;37.30;85.00;;;;;;1895062;75;21063;-85
2022/09/02 15:09:44;;;;;;;2.95;2.72;;;37.80;82.40;;;;;;1889627;75;21204;-79
2022/09/02 15:12:54;;;;;;;3.00;2.33;;;38.20;81.20;;;;;;1906342;75;21106;-82
2022/09/02 15:16:19;;;;;;;4.17;2.55;;;38.70;78.00;;;;;;1906564;75;21145;-82
2022/09/02 15:19:24;;;;;;;2.85;2.35;;;38.70;75.30;;;;;;1906395;75;21063;-84
2022/09/02 15:22:17;;;;;;;3.25;2.33;;;37.90;75.70;;;;;;1906065;75;21129;-83
2022/09/02 15:25:10;;;;;;;2.75;2.42;;;38.70;74.00;;;;;;1913568;73;21109;-85
2022/09/02 15:28:02;;;;;;;3.37;2.25;;;38.90;73.70;;;;;;1896498;75;21106;-84
2022/09/02 15:31:00;;;;;;;4.58;2.50;;;38.30;72.00;;;;;;1903601;73;21167;-85
2022/09/02 15:33:52;;;;;;;3.45;2.30;;;38.90;70.80;;;;;;1891287;75;21058;-84
2022/09/02 15:36:44;;;;;;;3.25;2.80;;;38.20;69.60;;;;;;1896295;75;21110;-84
2022/09/02 15:39:36;;;;;;;4.97;2.77;;;37.30;70.90;;;;;;1908112;73;21176;-84
2022/09/02 15:42:27;;;;;;;3.37;2.60;;;38.00;70.70;;;;;;1894092;75;21118;-86
2022/09/02 15:45:20;;;;;;;3.20;2.47;;;38.00;69.80;;;;;;1896492;73;21227;-78
2022/09/02 15:48:11;;;;;;;3.05;2.75;;;38.40;68.20;;;;;;1920111;73;21149;-81
2022/09/02 15:51:06;;;;;;;3.27;2.62;;;37.60;68.20;;;;;;1885313;74;21063;-82
2022/09/02 15:54:02;;;;;;;3.95;2.50;;;37.50;68.70;;;;;;1896969;75;21188;-82
2022/09/02 15:57:06;;;;;;;3.72;2.60;;;37.60;68.60;;;;;;1904582;73;21122;-76
2022/09/02 15:59:58;;;;;;;4.12;3.80;;;37.90;68.90;;;;;;1876278;75;21172;-75
2022/09/02 16:02:55;;;;;;;3.10;2.70;;;38.70;67.60;;;;;;1873501;75;21100;-81
2022/09/02 16:06:06;;;;;;;4.08;2.87;;;38.50;66.90;;;;;;1901879;75;21615;-75
2022/09/02 16:09:26;;;;;;;3.02;2.72;;;36.50;69.20;;;;;;1883349;75;21110;-80
2022/09/02 16:12:31;;;;;;;3.00;2.70;;;34.40;72.30;;;;;;1871940;74;21142;-73
2022/09/02 16:15:43;;;;;;;3.40;3.10;;;33.00;76.20;;;;;;1929271;73;21213;-77
2022/09/02 16:18:55;;;;;;;5.08;3.65;;;32.30;79.20;;;;;;1897102;75;21058;-78
2022/09/02 16:21:52;;;;;;;3.20;2.90;;;31.80;81.10;;;;;;1910220;74;21082;-72
2022/09/02 16:24:45;;;;;;;4.78;2.87;;;31.60;81.80;;;;;;1925870;74;21154;-72
2022/09/02 16:27:56;;;;;;;3.15;2.87;;;31.40;82.60;;;;;;1908133;74;21080;-72
2022/09/02 16:34:10;;;;;;;3.15;2.52;;;31.50;82.90;;;;;;1905304;74;21076;-79
2022/09/02 16:37:14;;;;;;;2.95;2.50;;;32.40;81.10;;;;;;1916711;74;21223;-77
2022/09/02 16:40:33;;;;;;;4.33;2.80;;;33.10;79.50;;;;;;1901893;74;21077;-74
2022/09/02 16:43:33;;;;;;;3.58;2.37;;;34.00;77.80;;;;;;1918831;74;21089;-75
2022/09/02 16:49:11;;;;;;;4.25;2.60;;;34.70;75.90;;;;;;1960494;72;22225;-74
2022/09/02 16:52:04;;;;;;;3.65;2.77;;;35.00;75.80;;;;;;1916463;75;21114;-75
2022/09/02 16:54:55;;;;;;;3.40;2.80;;;34.80;75.90;;;;;;1916454;73;21186;-74
2022/09/02 16:57:47;;;;;;;3.55;2.70;;;34.30;76.40;;;;;;1916314;75;21115;-74
2022/09/02 17:00:53;;;;;;;2.98;2.58;;;33.50;77.70;;;;;;1931720;73;21110;-85
2022/09/02 17:03:58;;;;;;;2.90;2.55;;;32.90;79.30;;;;;;1936412;73;21582;-69
2022/09/02 17:06:49;;;;;;;3.12;2.50;;;31.90;81.50;;;;;;1916987;73;21130;-70
2022/09/02 17:09:41;;;;;;;4.17;3.00;;;31.20;83.60;;;;;;1916800;75;21098;-70